createdAt,value
2018-11-14T00:01:08.346Z,13.23
2018-11-14T00:03:37.860Z,13.53
2018-11-14T00:06:07.723Z,13.07
2018-11-14T00:08:36.588Z,11.87
2018-11-14T00:11:05.776Z,14.37
2018-11-14T00:13:34.577Z,12.27
2018-11-14T00:16:03.454Z,13.27
2018-11-14T00:18:32.426Z,13.57
2018-11-14T00:21:01.280Z,13.03
2018-11-14T00:23:30.083Z,12.13
2018-11-14T00:25:59.916Z,13.87
2018-11-14T00:28:31.725Z,13.97
2018-11-14T00:31:03.075Z,13.87
2018-11-14T00:33:31.914Z,13.60
2018-11-14T00:36:04.104Z,12.97
2018-11-14T00:38:37.714Z,14.40
2018-11-14T00:41:10.906Z,12.63
2018-11-14T00:43:44.114Z,12.57
2018-11-14T00:46:14.509Z,14.10
2018-11-14T00:48:48.379Z,13.53
2018-11-14T00:51:18.520Z,13.03
2018-11-14T00:53:48.290Z,13.03
2018-11-14T00:56:19.012Z,14.33
2018-11-14T00:58:47.817Z,13.90
2018-11-14T01:01:16.657Z,12.77
2018-11-14T01:03:45.510Z,13.53
2018-11-14T01:06:14.356Z,12.67
2018-11-14T01:08:43.226Z,13.90
2018-11-14T01:11:12.053Z,15.27
2018-11-14T01:13:41.660Z,13.23
2018-11-14T01:16:14.200Z,14.63
2018-11-14T01:18:47.808Z,14.13
2018-11-14T01:21:18.612Z,13.83
2018-11-14T01:23:51.328Z,14.43
2018-11-14T01:26:24.416Z,15.33
2018-11-14T01:28:59.673Z,15.27
2018-11-14T01:31:29.345Z,14.13
2018-11-14T01:34:04.259Z,16.23
2018-11-14T01:36:37.719Z,15.43
2018-11-14T01:39:13.283Z,14.27
2018-11-14T01:41:43.567Z,13.90
2018-11-14T01:44:12.451Z,15.20
2018-11-14T01:46:42.969Z,14.80
2018-11-14T01:49:11.854Z,16.00
2018-11-14T01:51:40.647Z,12.90
2018-11-14T01:54:09.486Z,14.27
2018-11-14T01:56:38.302Z,15.80
2018-11-14T01:59:07.157Z,16.20
2018-11-14T02:01:35.959Z,13.90
2018-11-14T02:04:05.008Z,14.23
2018-11-14T02:06:33.860Z,16.97
2018-11-14T02:09:02.801Z,15.50
2018-11-14T02:11:33.301Z,13.80
2018-11-14T02:14:03.029Z,14.63
2018-11-14T02:16:32.767Z,15.60
2018-11-14T02:19:01.636Z,16.30
2018-11-14T02:21:31.319Z,15.73
2018-11-14T02:24:03.595Z,15.67
2018-11-14T02:26:41.953Z,15.43
2018-11-14T02:29:12.255Z,15.53
2018-11-14T02:31:42.486Z,16.40
2018-11-14T02:34:14.809Z,15.37
2018-11-14T02:36:45.265Z,14.17
2018-11-14T02:39:16.851Z,16.27
2018-11-14T02:41:47.162Z,14.43
2018-11-14T02:44:15.972Z,15.67
2018-11-14T02:46:46.158Z,14.80
2018-11-14T02:49:15.112Z,15.13
2018-11-14T02:51:43.979Z,16.23
2018-11-14T02:54:12.776Z,17.90
2018-11-14T02:56:41.609Z,15.97
2018-11-14T02:59:10.458Z,15.27
2018-11-14T03:01:39.543Z,14.67
2018-11-14T03:04:13.755Z,14.57
2018-11-14T03:06:44.449Z,14.37
2018-11-14T03:09:13.936Z,15.90
2018-11-14T03:11:44.510Z,14.37
2018-11-14T03:14:19.031Z,13.23
2018-11-14T03:16:50.972Z,14.60
2018-11-14T03:19:28.168Z,15.00
2018-11-14T03:22:06.776Z,16.73
2018-11-14T03:24:44.513Z,15.80
2018-11-14T03:27:14.756Z,15.60
2018-11-14T03:29:47.307Z,16.17
2018-11-14T03:32:17.232Z,17.97
2018-11-14T03:34:46.029Z,16.23
2018-11-14T03:37:14.843Z,15.30
2018-11-14T03:39:43.684Z,13.13
2018-11-14T03:42:12.503Z,16.77
2018-11-14T03:44:41.378Z,15.90
2018-11-14T03:47:10.788Z,16.03
2018-11-14T03:49:41.211Z,16.03
2018-11-14T03:52:10.094Z,18.40
2018-11-14T03:54:40.466Z,16.83
2018-11-14T03:57:10.086Z,15.47
2018-11-14T03:59:40.050Z,16.00
2018-11-14T04:02:09.083Z,15.30
2018-11-14T04:04:37.957Z,15.33
2018-11-14T04:07:10.203Z,16.93
2018-11-14T04:09:40.491Z,15.53
2018-11-14T04:12:14.227Z,15.97
2018-11-14T04:14:44.619Z,14.90
2018-11-14T04:17:15.084Z,17.30
2018-11-14T04:19:43.964Z,15.07
2018-11-14T04:22:12.841Z,16.77
2018-11-14T04:24:41.770Z,16.03
2018-11-14T04:27:10.641Z,15.77
2018-11-14T04:29:39.431Z,16.73
2018-11-14T04:32:08.295Z,17.63
2018-11-14T04:34:37.068Z,14.97
2018-11-14T04:37:05.981Z,15.23
2018-11-14T04:39:34.782Z,17.40
2018-11-14T04:42:03.658Z,18.30
2018-11-14T04:44:32.467Z,16.33
2018-11-14T04:47:01.335Z,17.90
2018-11-14T04:49:31.720Z,16.40
2018-11-14T04:52:00.755Z,15.13
2018-11-14T04:54:29.831Z,15.73
2018-11-14T04:57:01.403Z,16.37
2018-11-14T04:59:31.831Z,17.07
2018-11-14T05:02:00.747Z,15.90
2018-11-14T05:04:29.613Z,14.07
2018-11-14T05:06:58.470Z,16.10
2018-11-14T05:09:27.345Z,15.13
2018-11-14T05:11:56.193Z,14.73
2018-11-14T05:14:24.998Z,15.73
2018-11-14T05:16:53.831Z,14.33
2018-11-14T05:19:22.677Z,14.30
2018-11-14T05:21:51.547Z,15.47
2018-11-14T05:24:20.435Z,14.20
2018-11-14T05:26:49.237Z,13.80
2018-11-14T05:29:18.103Z,15.10
2018-11-14T05:31:46.952Z,13.47
2018-11-14T05:34:15.886Z,16.00
2018-11-14T05:36:44.804Z,14.20
2018-11-14T05:39:13.831Z,15.90
2018-11-14T05:41:42.714Z,14.60
2018-11-14T05:44:11.602Z,15.37
2018-11-14T05:46:40.468Z,16.10
2018-11-14T05:49:09.339Z,15.57
2018-11-14T05:51:38.163Z,15.63
2018-11-14T05:54:07.131Z,16.60
2018-11-14T05:56:36.025Z,14.83
2018-11-14T05:59:04.955Z,15.20
2018-11-14T06:01:33.810Z,13.47
2018-11-14T06:04:02.684Z,15.13
2018-11-14T06:06:31.588Z,14.83
2018-11-14T06:09:00.447Z,16.90
2018-11-14T06:11:29.306Z,15.83
2018-11-14T06:13:58.154Z,14.17
2018-11-14T06:16:26.993Z,15.73
2018-11-14T06:18:56.707Z,16.37
2018-11-14T06:21:25.567Z,16.50
2018-11-14T06:23:54.507Z,16.27
2018-11-14T06:26:23.363Z,16.80
2018-11-14T06:28:52.198Z,18.47
2018-11-14T06:31:21.080Z,16.30
2018-11-14T06:33:49.948Z,18.17
2018-11-14T06:36:18.734Z,16.73
2018-11-14T06:38:47.566Z,16.53
2018-11-14T06:41:16.446Z,18.07
2018-11-14T06:43:45.296Z,17.67
2018-11-14T06:46:14.144Z,18.60
2018-11-14T06:48:43.024Z,16.73
2018-11-14T06:51:11.813Z,16.80
2018-11-14T06:53:40.658Z,17.87
2018-11-14T06:56:09.543Z,19.30
2018-11-14T06:58:38.418Z,17.33
2018-11-14T07:01:07.201Z,18.03
2018-11-14T07:03:36.153Z,18.53
2018-11-14T07:06:05.317Z,18.47
2018-11-14T07:08:34.150Z,18.43
2018-11-14T07:11:03.019Z,18.77
2018-11-14T07:13:31.852Z,20.80
2018-11-14T07:16:00.706Z,21.97
2018-11-14T07:18:29.605Z,20.23
2018-11-14T07:20:58.453Z,19.60
2018-11-14T07:23:27.291Z,18.60
2018-11-14T07:25:56.085Z,19.93
2018-11-14T07:28:25.375Z,19.57
2018-11-14T07:30:54.272Z,20.27
2018-11-14T07:33:23.109Z,20.63
2018-11-14T07:35:52.000Z,20.53
2018-11-14T07:38:48.724Z,19.27
2018-11-14T07:41:22.651Z,18.53
2018-11-14T07:43:51.610Z,21.90
2018-11-14T07:46:20.615Z,22.93
2018-11-14T07:48:50.339Z,20.63
2018-11-14T07:51:19.636Z,22.57
2018-11-14T07:53:48.555Z,25.43
2018-11-14T07:56:17.403Z,24.43
2018-11-14T07:58:46.511Z,26.77
2018-11-14T08:01:15.599Z,27.83
2018-11-14T08:03:44.848Z,26.83
2018-11-14T08:06:13.775Z,29.20
2018-11-14T08:08:43.072Z,25.10
2018-11-14T08:11:11.995Z,25.20
2018-11-14T08:13:42.391Z,27.23
2018-11-14T08:16:11.249Z,25.97
2018-11-14T08:18:40.217Z,46.73
2018-11-14T08:21:09.421Z,28.27
2018-11-14T08:23:38.335Z,27.60
2018-11-14T08:26:07.316Z,28.33
2018-11-14T08:28:36.211Z,26.47
2018-11-14T08:31:05.205Z,26.73
2018-11-14T08:33:34.090Z,26.43
2018-11-14T08:36:04.042Z,23.70
2018-11-14T08:38:32.946Z,23.90
2018-11-14T08:41:01.807Z,26.70
2018-11-14T08:43:30.742Z,24.17
2018-11-14T08:45:59.553Z,86.13
2018-11-14T08:48:28.443Z,29.43
2018-11-14T08:50:57.314Z,53.57
2018-11-14T08:53:26.154Z,291.17
2018-11-14T08:55:55.114Z,208.53
2018-11-14T08:58:24.024Z,43.57
2018-11-14T09:00:53.079Z,52.63
2018-11-14T09:03:21.953Z,45.10
2018-11-14T09:05:50.820Z,43.87
2018-11-14T09:08:19.722Z,25.87
2018-11-14T09:10:48.594Z,24.63
2018-11-14T09:13:18.022Z,22.17
2018-11-14T09:15:46.881Z,21.97
2018-11-14T09:18:15.784Z,21.53
2018-11-14T09:20:44.742Z,19.10
2018-11-14T09:23:14.265Z,18.77
2018-11-14T09:25:43.207Z,16.23
2018-11-14T09:28:12.096Z,16.30
2018-11-14T09:30:41.095Z,16.63
2018-11-14T09:33:09.974Z,17.53
2018-11-14T09:35:39.878Z,17.50
2018-11-14T09:38:08.686Z,18.60
2018-11-14T09:40:37.575Z,18.87
2018-11-14T09:43:06.520Z,17.40
2018-11-14T09:45:35.372Z,17.83
2018-11-14T09:48:04.324Z,17.17
2018-11-14T09:50:33.432Z,16.53
2018-11-14T09:53:03.720Z,16.97
2018-11-14T09:55:32.614Z,16.63
2018-11-14T09:58:01.500Z,16.17
2018-11-14T10:00:32.706Z,14.50
2018-11-14T10:03:06.216Z,14.80
2018-11-14T10:05:35.148Z,14.73
2018-11-14T10:08:04.099Z,12.37
2018-11-14T10:10:33.084Z,11.73
2018-11-14T10:13:02.045Z,11.87
2018-11-14T10:15:30.887Z,10.90
2018-11-14T10:17:59.889Z,11.73
2018-11-14T10:20:28.797Z,11.37
2018-11-14T10:22:57.705Z,10.97
2018-11-14T10:25:26.534Z,11.30
2018-11-14T10:27:55.432Z,9.70
2018-11-14T10:30:27.508Z,12.97
2018-11-14T10:32:56.398Z,10.67
2018-11-14T10:35:26.937Z,9.87
2018-11-14T10:37:55.870Z,9.73
2018-11-14T10:40:25.981Z,9.43
2018-11-14T10:42:54.953Z,9.67
2018-11-14T10:45:24.900Z,9.23
2018-11-14T10:47:53.735Z,9.27
2018-11-14T10:50:23.901Z,8.37
2018-11-14T10:52:52.743Z,9.87
2018-11-14T10:55:21.973Z,8.73
2018-11-14T10:57:50.862Z,8.40
2018-11-14T11:00:26.330Z,10.00
2018-11-14T11:03:00.337Z,10.17
2018-11-14T11:05:34.552Z,9.00
2018-11-14T11:08:08.875Z,8.90
2018-11-14T11:10:43.013Z,8.27
2018-11-14T11:13:16.018Z,7.63
2018-11-14T11:15:50.244Z,7.90
2018-11-14T11:18:20.218Z,8.07
2018-11-14T11:20:49.057Z,8.20
2018-11-14T11:23:17.910Z,8.17
2018-11-14T11:25:46.782Z,7.90
2018-11-14T11:28:15.943Z,8.60
2018-11-14T11:30:44.943Z,8.07
2018-11-14T11:33:13.659Z,7.33
2018-11-14T11:35:42.529Z,7.33
2018-11-14T11:38:11.496Z,6.70
2018-11-14T11:40:40.319Z,6.90
2018-11-14T11:43:09.208Z,5.83
2018-11-14T11:45:38.078Z,5.60
2018-11-14T11:48:06.937Z,6.47
2018-11-14T11:50:35.767Z,6.43
2018-11-14T11:53:04.685Z,6.77
2018-11-14T11:55:33.509Z,6.40
2018-11-14T11:58:02.399Z,6.67
2018-11-14T12:00:31.394Z,6.00
2018-11-14T12:03:00.221Z,5.97
2018-11-14T12:05:29.084Z,7.37
2018-11-14T12:07:57.938Z,7.97
2018-11-14T12:10:26.863Z,7.40
2018-11-14T12:12:55.743Z,8.63
2018-11-14T12:15:24.604Z,9.30
2018-11-14T12:17:53.663Z,9.07
2018-11-14T12:20:22.457Z,9.80
2018-11-14T12:22:51.421Z,9.90
2018-11-14T12:25:20.239Z,9.90
2018-11-14T12:27:49.081Z,10.90
2018-11-14T12:30:18.681Z,9.80
2018-11-14T12:32:47.846Z,10.50
2018-11-14T12:35:17.448Z,10.00
2018-11-14T12:37:46.274Z,10.73
2018-11-14T12:40:15.667Z,9.40
2018-11-14T12:42:44.607Z,10.23
2018-11-14T12:45:14.818Z,8.70
2018-11-14T12:47:43.662Z,10.37
2018-11-14T12:50:13.490Z,9.43
2018-11-14T12:52:42.709Z,10.33
2018-11-14T12:55:14.942Z,10.10
2018-11-14T12:57:44.110Z,7.97
2018-11-14T13:00:14.425Z,8.77
2018-11-14T13:02:43.304Z,8.70
2018-11-14T13:05:13.261Z,9.47
2018-11-14T13:07:42.302Z,8.87
2018-11-14T13:10:12.495Z,8.70
2018-11-14T13:12:41.488Z,8.67
2018-11-14T13:15:11.634Z,8.50
2018-11-14T13:17:40.947Z,7.27
2018-11-14T13:20:12.674Z,8.63
2018-11-14T13:22:41.590Z,6.97
2018-11-14T13:25:11.923Z,7.13
2018-11-14T13:27:41.808Z,8.23
2018-11-14T13:30:12.838Z,7.87
2018-11-14T13:32:41.830Z,7.47
2018-11-14T13:35:13.147Z,6.30
2018-11-14T13:37:42.883Z,6.60
2018-11-14T13:40:11.974Z,7.93
2018-11-14T13:42:40.963Z,7.67
2018-11-14T13:45:11.618Z,6.63
2018-11-14T13:47:40.815Z,6.67
2018-11-14T13:50:15.180Z,7.87
2018-11-14T13:52:44.059Z,6.80
2018-11-14T13:55:17.076Z,8.07
2018-11-14T13:57:47.347Z,7.37
2018-11-14T14:00:18.721Z,7.03
2018-11-14T14:02:48.483Z,7.30
2018-11-14T14:05:19.037Z,7.27
2018-11-14T14:07:48.431Z,7.13
2018-11-14T14:10:18.552Z,7.93
2018-11-14T14:12:48.735Z,6.70
2018-11-14T14:15:19.827Z,6.73
2018-11-14T14:17:49.187Z,5.93
2018-11-14T14:20:18.624Z,7.37
2018-11-14T14:22:47.888Z,7.13
2018-11-14T14:25:17.929Z,9.27
2018-11-14T14:27:46.775Z,10.20
2018-11-14T14:30:16.863Z,12.20
2018-11-14T14:32:46.248Z,11.27
2018-11-14T14:35:16.260Z,16.07
2018-11-14T14:37:45.119Z,25.80
2018-11-14T14:40:19.468Z,29.00
2018-11-14T14:42:48.449Z,23.83
2018-11-14T14:45:19.009Z,18.97
2018-11-14T14:47:47.828Z,7.30
2018-11-14T14:50:17.781Z,13.47
2018-11-14T14:52:46.940Z,16.63
2018-11-14T14:55:18.295Z,12.27
2018-11-14T14:57:47.673Z,12.13
2018-11-14T15:00:22.086Z,11.30
2018-11-14T15:02:50.976Z,8.57
2018-11-14T15:05:19.809Z,8.30
2018-11-14T15:07:48.693Z,7.87
2018-11-14T15:10:19.548Z,8.27
2018-11-14T15:12:48.478Z,8.07
2018-11-14T15:15:17.957Z,7.73
2018-11-14T15:17:47.001Z,6.50
2018-11-14T15:20:18.192Z,7.83
2018-11-14T15:22:47.142Z,7.47
2018-11-14T15:25:17.604Z,7.97
2018-11-14T15:27:47.055Z,8.37
2018-11-14T15:30:21.663Z,7.70
2018-11-14T15:32:50.810Z,8.47
2018-11-14T15:35:19.785Z,7.90
2018-11-14T15:37:48.610Z,7.37
2018-11-14T15:40:18.540Z,7.07
2018-11-14T15:42:47.566Z,7.53
2018-11-14T15:45:24.518Z,7.17
2018-11-14T15:47:53.374Z,7.67
2018-11-14T15:50:23.525Z,7.93
2018-11-14T15:52:53.337Z,7.57
2018-11-14T15:55:22.443Z,8.43
2018-11-14T15:57:51.503Z,8.80
2018-11-14T16:00:24.635Z,7.57
2018-11-14T16:02:53.631Z,10.77
2018-11-14T16:05:23.698Z,8.53
2018-11-14T16:07:53.876Z,11.03
2018-11-14T16:10:23.766Z,9.63
2018-11-14T16:12:52.670Z,8.60
2018-11-14T16:15:23.052Z,10.87
2018-11-14T16:17:52.007Z,11.47
2018-11-14T16:20:22.124Z,8.67
2018-11-14T16:22:51.077Z,9.17
2018-11-14T16:25:21.274Z,9.67
2018-11-14T16:27:51.236Z,8.87
2018-11-14T16:30:23.438Z,9.30
2018-11-14T16:32:54.036Z,8.83
2018-11-14T16:35:23.061Z,10.00
2018-11-14T16:37:52.099Z,9.73
2018-11-14T16:40:22.699Z,9.07
2018-11-14T16:42:52.527Z,9.60
2018-11-14T16:45:21.541Z,11.27
2018-11-14T16:47:50.749Z,9.50
2018-11-14T16:50:22.346Z,9.03
2018-11-14T16:52:51.314Z,9.37
2018-11-14T16:55:21.414Z,8.67
2018-11-14T16:57:51.551Z,9.10
2018-11-14T17:00:21.984Z,9.70
2018-11-14T17:02:51.111Z,10.17
2018-11-14T17:05:33.447Z,9.50
2018-11-14T17:08:03.805Z,10.10
2018-11-14T17:10:33.038Z,10.47
2018-11-14T17:13:02.451Z,10.07
2018-11-14T17:15:31.452Z,9.97
2018-11-14T17:18:00.321Z,11.00
2018-11-14T17:20:29.216Z,9.63
2018-11-14T17:22:58.346Z,11.10
2018-11-14T17:25:27.586Z,11.07
2018-11-14T17:27:56.772Z,11.93
2018-11-14T17:30:26.992Z,12.07
2018-11-14T17:32:56.067Z,12.53
2018-11-14T17:35:24.906Z,12.50
2018-11-14T17:37:53.823Z,14.03
2018-11-14T17:40:25.266Z,15.53
2018-11-14T17:42:54.572Z,14.13
2018-11-14T17:45:25.817Z,16.70
2018-11-14T17:47:55.179Z,14.77
2018-11-14T17:50:26.617Z,16.80
2018-11-14T17:52:56.325Z,17.70
2018-11-14T17:55:25.852Z,17.30
2018-11-14T17:57:56.119Z,15.23
2018-11-14T18:00:27.238Z,14.93
2018-11-14T18:02:56.249Z,16.67
2018-11-14T18:05:26.616Z,15.13
2018-11-14T18:07:55.858Z,15.37
2018-11-14T18:10:26.799Z,16.37
2018-11-14T18:12:57.805Z,15.77
2018-11-14T18:15:27.262Z,16.07
2018-11-14T18:17:56.786Z,17.63
2018-11-14T18:20:29.550Z,18.57
2018-11-14T18:22:58.767Z,16.83
2018-11-14T18:25:28.940Z,19.33
2018-11-14T18:27:58.560Z,20.27
2018-11-14T18:30:29.545Z,20.17
2018-11-14T18:32:59.330Z,20.80
2018-11-14T18:35:28.484Z,20.20
2018-11-14T18:37:58.535Z,21.97
2018-11-14T18:40:28.961Z,22.80
2018-11-14T18:42:57.925Z,26.03
2018-11-14T18:45:29.291Z,26.70
2018-11-14T18:47:59.795Z,25.20
2018-11-14T18:50:29.024Z,30.27
2018-11-14T18:52:57.954Z,24.23
2018-11-14T18:55:28.400Z,23.03
2018-11-14T18:57:57.754Z,21.30
2018-11-14T19:00:28.919Z,22.83
2018-11-14T19:02:58.019Z,25.57
2018-11-14T19:05:26.998Z,23.97
2018-11-14T19:07:56.072Z,22.30
2018-11-14T19:10:29.264Z,17.67
2018-11-14T19:12:58.272Z,16.07
2018-11-14T19:15:29.077Z,17.17
2018-11-14T19:17:58.035Z,20.03
2018-11-14T19:20:28.186Z,19.30
2018-11-14T19:22:59.455Z,18.67
2018-11-14T19:25:30.647Z,17.30
2018-11-14T19:27:59.711Z,17.60
2018-11-14T19:30:30.025Z,17.10
2018-11-14T19:33:04.928Z,16.20
2018-11-14T19:35:33.926Z,13.07
2018-11-14T19:38:03.208Z,13.97
2018-11-14T19:40:33.817Z,12.93
2018-11-14T19:43:03.790Z,13.80
2018-11-14T19:45:34.165Z,15.00
2018-11-14T19:48:04.480Z,13.93
2018-11-14T19:50:33.558Z,13.73
2018-11-14T19:53:02.589Z,14.67
2018-11-14T19:55:32.426Z,14.13
2018-11-14T19:58:03.478Z,12.97
2018-11-14T20:00:33.650Z,13.30
2018-11-14T20:03:02.776Z,13.43
2018-11-14T20:05:31.702Z,13.57
2018-11-14T20:08:02.321Z,13.30
2018-11-14T20:10:32.612Z,14.57
2018-11-14T20:13:02.507Z,14.23
2018-11-14T20:15:33.102Z,15.20
2018-11-14T20:18:02.023Z,17.03
2018-11-14T20:20:32.554Z,19.50
2018-11-14T20:23:01.455Z,17.27
2018-11-14T20:25:30.424Z,15.50
2018-11-14T20:28:00.220Z,17.37
2018-11-14T20:30:35.494Z,16.23
2018-11-14T20:33:06.551Z,15.70
2018-11-14T20:35:36.359Z,15.73
2018-11-14T20:38:06.282Z,15.33
2018-11-14T20:40:40.517Z,15.43
2018-11-14T20:43:09.671Z,14.67
2018-11-14T20:45:38.525Z,14.43
2018-11-14T20:48:07.486Z,13.23
2018-11-14T20:50:38.517Z,13.47
2018-11-14T20:53:07.429Z,13.93
2018-11-14T20:55:36.720Z,13.57
2018-11-14T20:58:05.777Z,13.67
2018-11-14T21:00:35.914Z,14.47
2018-11-14T21:03:05.622Z,15.07
2018-11-14T21:05:34.605Z,14.93
2018-11-14T21:08:03.802Z,14.83
2018-11-14T21:10:34.058Z,14.10
2018-11-14T21:13:03.792Z,15.17
2018-11-14T21:15:34.168Z,14.57
2018-11-14T21:18:03.608Z,14.37
2018-11-14T21:20:33.014Z,14.73
2018-11-14T21:23:02.262Z,13.87
2018-11-14T21:25:31.343Z,13.70
2018-11-14T21:28:00.604Z,14.23
2018-11-14T21:30:30.325Z,14.30
2018-11-14T21:33:00.681Z,14.10
2018-11-14T21:35:31.651Z,14.87
2018-11-14T21:38:01.710Z,14.37
2018-11-14T21:40:30.747Z,16.40
2018-11-14T21:42:59.595Z,14.63
2018-11-14T21:45:29.205Z,14.63
2018-11-14T21:48:03.372Z,14.17
2018-11-14T21:50:32.872Z,12.90
2018-11-14T21:53:01.737Z,15.00
2018-11-14T21:55:30.626Z,14.30
2018-11-14T21:57:59.518Z,14.17
2018-11-14T22:00:35.673Z,15.33
2018-11-14T22:03:05.183Z,13.77
2018-11-14T22:05:34.536Z,15.07
2018-11-14T22:08:03.423Z,14.93
2018-11-14T22:10:32.950Z,13.37
2018-11-14T22:13:01.848Z,13.40
2018-11-14T22:15:31.296Z,14.40
2018-11-14T22:18:00.184Z,14.13
2018-11-14T22:20:29.578Z,16.27
2018-11-14T22:22:58.585Z,14.77
2018-11-14T22:25:28.615Z,13.97
2018-11-14T22:27:58.531Z,15.23
2018-11-14T22:30:32.523Z,15.37
2018-11-14T22:33:02.459Z,14.97
2018-11-14T22:35:33.004Z,15.23
2018-11-14T22:38:02.609Z,13.87
2018-11-14T22:40:32.612Z,15.33
2018-11-14T22:43:01.479Z,16.10
2018-11-14T22:45:31.617Z,15.33
2018-11-14T22:48:00.528Z,16.17
2018-11-14T22:50:29.428Z,15.57
2018-11-14T22:52:58.258Z,14.90
2018-11-14T22:55:27.343Z,15.47
2018-11-14T22:57:56.307Z,15.23
2018-11-14T23:00:37.093Z,15.90
2018-11-14T23:03:06.125Z,16.47
2018-11-14T23:05:34.914Z,19.73
2018-11-14T23:08:03.796Z,19.20
2018-11-14T23:10:32.675Z,17.70
2018-11-14T23:13:01.531Z,15.93
2018-11-14T23:15:30.494Z,17.77
2018-11-14T23:17:59.345Z,15.97
2018-11-14T23:20:28.198Z,16.30
2018-11-14T23:22:57.047Z,16.33
2018-11-14T23:25:25.942Z,14.77
2018-11-14T23:27:55.635Z,14.77
2018-11-14T23:30:25.791Z,16.30
2018-11-14T23:32:55.570Z,13.83
2018-11-14T23:35:25.629Z,15.63
2018-11-14T23:37:56.825Z,15.20
2018-11-14T23:40:25.875Z,13.97
2018-11-14T23:42:54.775Z,14.53
2018-11-14T23:45:24.446Z,14.23
2018-11-14T23:47:53.409Z,13.40
2018-11-14T23:50:24.486Z,14.87
2018-11-14T23:52:54.190Z,14.70
2018-11-14T23:55:23.818Z,14.43
2018-11-14T23:57:52.715Z,13.67
